createdAt,value
2019-06-08T00:01:24.947Z,61.40
2019-06-08T00:03:53.550Z,61.40
2019-06-08T00:06:23.075Z,61.30
2019-06-08T00:08:51.694Z,61.00
2019-06-08T00:11:21.126Z,61.60
2019-06-08T00:13:49.823Z,60.90
2019-06-08T00:16:19.357Z,61.30
2019-06-08T00:18:48.130Z,61.30
2019-06-08T00:21:17.619Z,61.00
2019-06-08T00:23:46.270Z,60.50
2019-06-08T00:26:15.921Z,60.90
2019-06-08T00:28:44.610Z,60.70
2019-06-08T00:31:13.170Z,61.40
2019-06-08T00:33:43.309Z,60.50
2019-06-08T00:36:11.870Z,60.90
2019-06-08T00:38:40.408Z,60.20
2019-06-08T00:41:08.868Z,60.80
2019-06-08T00:43:37.352Z,60.50
2019-06-08T00:46:05.913Z,60.30
2019-06-08T00:48:34.430Z,60.70
2019-06-08T00:51:02.906Z,60.60
2019-06-08T00:53:31.457Z,60.70
2019-06-08T00:55:59.978Z,60.60
2019-06-08T00:58:28.528Z,60.40
2019-06-08T01:00:57.103Z,60.80
2019-06-08T01:03:25.872Z,60.50
2019-06-08T01:05:54.411Z,60.20
2019-06-08T01:08:23.911Z,60.30
2019-06-08T01:10:56.077Z,60.00
2019-06-08T01:13:24.945Z,59.80
2019-06-08T01:15:53.548Z,59.70
2019-06-08T01:18:22.961Z,60.10
2019-06-08T01:20:52.312Z,60.00
2019-06-08T01:23:21.582Z,60.00
2019-06-08T01:25:50.349Z,59.90
2019-06-08T01:28:19.919Z,59.70
2019-06-08T01:30:48.583Z,59.40
2019-06-08T01:33:17.062Z,59.80
2019-06-08T01:35:45.541Z,59.50
2019-06-08T01:38:14.250Z,59.50
2019-06-08T01:40:42.706Z,59.50
2019-06-08T01:43:11.192Z,59.20
2019-06-08T01:45:39.694Z,58.90
2019-06-08T01:48:19.527Z,59.50
2019-06-08T01:50:38.931Z,59.10
2019-06-08T01:53:07.396Z,59.30
2019-06-08T01:55:35.882Z,59.20
2019-06-08T01:58:04.398Z,59.50
2019-06-08T02:00:39.311Z,59.50
2019-06-08T02:03:03.131Z,59.40
2019-06-08T02:05:32.514Z,58.60
2019-06-08T02:08:01.131Z,59.10
2019-06-08T02:10:30.827Z,59.30
2019-06-08T02:12:59.442Z,59.30
2019-06-08T02:15:29.036Z,59.20
2019-06-08T02:17:57.799Z,59.40
2019-06-08T02:20:26.453Z,59.50
2019-06-08T02:22:54.997Z,59.50
2019-06-08T02:25:27.575Z,59.20
2019-06-08T02:27:56.913Z,58.70
2019-06-08T02:30:30.145Z,59.80
2019-06-08T02:32:59.606Z,59.20
2019-06-08T02:35:28.097Z,59.30
2019-06-08T02:37:56.667Z,59.10
2019-06-08T02:40:25.143Z,58.80
2019-06-08T02:42:53.695Z,59.10
2019-06-08T02:45:22.167Z,59.10
2019-06-08T02:47:50.738Z,59.10
2019-06-08T02:50:22.487Z,59.20
2019-06-08T02:52:50.999Z,58.90
2019-06-08T02:55:19.681Z,59.20
2019-06-08T02:57:48.143Z,59.40
2019-06-08T03:00:18.389Z,59.40
2019-06-08T03:02:46.970Z,59.10
2019-06-08T03:05:15.791Z,59.20
2019-06-08T03:07:44.355Z,59.30
2019-06-08T03:10:12.865Z,58.70
2019-06-08T03:12:42.545Z,59.10
2019-06-08T03:15:11.151Z,59.50
2019-06-08T03:17:40.137Z,59.50
2019-06-08T03:20:09.772Z,58.80
2019-06-08T03:22:40.822Z,59.20
2019-06-08T03:25:08.391Z,59.40
2019-06-08T03:27:38.536Z,59.30
2019-06-08T03:30:15.982Z,59.00
2019-06-08T03:32:44.769Z,59.30
2019-06-08T03:35:07.635Z,58.90
2019-06-08T03:37:37.727Z,58.80
2019-06-08T03:40:06.562Z,59.40
2019-06-08T03:42:35.041Z,59.20
2019-06-08T03:45:05.651Z,58.80
2019-06-08T03:47:34.503Z,59.10
2019-06-08T03:50:03.875Z,59.30
2019-06-08T03:52:32.460Z,59.20
2019-06-08T03:55:00.939Z,58.80
2019-06-08T03:57:29.427Z,59.10
2019-06-08T03:59:57.938Z,59.00
2019-06-08T04:02:26.488Z,59.00
2019-06-08T04:04:55.045Z,59.10
2019-06-08T04:07:23.525Z,59.70
2019-06-08T04:09:52.004Z,59.10
2019-06-08T04:12:20.517Z,59.10
2019-06-08T04:14:50.456Z,58.70
2019-06-08T04:17:19.071Z,59.10
2019-06-08T04:20:08.755Z,59.30
2019-06-08T04:22:17.840Z,59.40
2019-06-08T04:24:46.677Z,60.00
2019-06-08T04:27:15.362Z,59.70
2019-06-08T04:29:44.025Z,59.80
2019-06-08T04:32:14.047Z,59.80
2019-06-08T04:34:43.003Z,59.50
2019-06-08T04:37:15.746Z,59.40
2019-06-08T04:39:42.074Z,59.20
2019-06-08T04:42:10.659Z,59.70
2019-06-08T04:44:40.487Z,59.90
2019-06-08T04:47:09.248Z,60.30
2019-06-08T04:49:38.483Z,60.30
2019-06-08T04:52:07.195Z,60.50
2019-06-08T04:54:35.767Z,60.60
2019-06-08T04:57:04.415Z,61.60
2019-06-08T04:59:32.995Z,61.10
2019-06-08T05:02:01.646Z,60.70
2019-06-08T05:04:30.180Z,60.50
2019-06-08T05:06:58.841Z,61.00
2019-06-08T05:09:27.370Z,60.40
2019-06-08T05:11:55.995Z,60.70
2019-06-08T05:14:24.482Z,61.20
2019-06-08T05:16:53.024Z,61.30
2019-06-08T05:19:21.588Z,61.10
2019-06-08T05:21:50.080Z,61.30
2019-06-08T05:24:18.567Z,61.60
2019-06-08T05:26:47.367Z,61.60
2019-06-08T05:29:15.977Z,61.80
2019-06-08T05:31:45.541Z,61.60
2019-06-08T05:34:14.182Z,61.70
2019-06-08T05:36:43.355Z,61.40
2019-06-08T05:39:12.050Z,61.30
2019-06-08T05:41:41.404Z,61.20
2019-06-08T05:44:10.061Z,61.50
2019-06-08T05:46:39.558Z,61.60
2019-06-08T05:49:10.911Z,61.80
2019-06-08T05:51:39.781Z,61.80
2019-06-08T05:54:08.391Z,61.60
2019-06-08T05:56:36.962Z,61.80
2019-06-08T05:59:05.505Z,61.70
2019-06-08T06:01:35.527Z,62.10
2019-06-08T06:04:04.029Z,62.10
2019-06-08T06:06:32.487Z,62.20
2019-06-08T06:09:00.990Z,62.30
2019-06-08T06:11:29.599Z,62.20
2019-06-08T06:13:58.062Z,61.90
2019-06-08T06:16:26.563Z,61.60
2019-06-08T06:18:55.041Z,61.90
2019-06-08T06:21:23.663Z,61.60
2019-06-08T06:23:52.118Z,61.50
2019-06-08T06:26:20.598Z,61.70
2019-06-08T06:28:49.691Z,61.00
2019-06-08T06:31:18.291Z,61.30
2019-06-08T06:33:47.962Z,61.40
2019-06-08T06:36:16.562Z,61.00
2019-06-08T06:38:45.916Z,61.30
2019-06-08T06:41:14.514Z,61.60
2019-06-08T06:43:43.963Z,61.50
2019-06-08T06:46:12.524Z,61.20
2019-06-08T06:48:41.995Z,61.10
2019-06-08T06:51:22.886Z,60.90
2019-06-08T06:53:40.783Z,60.40
2019-06-08T06:56:09.244Z,60.90
2019-06-08T06:58:37.773Z,60.70
2019-06-08T07:01:06.303Z,60.40
2019-06-08T07:03:34.850Z,60.80
2019-06-08T07:06:03.348Z,60.50
2019-06-08T07:08:31.838Z,60.30
2019-06-08T07:11:00.326Z,60.10
2019-06-08T07:13:28.799Z,61.00
2019-06-08T07:15:58.268Z,61.30
2019-06-08T07:18:27.618Z,60.40
2019-06-08T07:20:56.686Z,60.50
2019-06-08T07:23:25.167Z,60.50
2019-06-08T07:25:54.543Z,60.70
2019-06-08T07:28:23.033Z,59.20
2019-06-08T07:30:52.702Z,60.20
2019-06-08T07:33:21.470Z,59.90
2019-06-08T07:35:51.426Z,59.80
2019-06-08T07:38:20.022Z,61.00
2019-06-08T07:40:49.866Z,60.80
2019-06-08T07:43:18.462Z,60.30
2019-06-08T07:45:47.826Z,59.90
2019-06-08T07:48:18.457Z,60.20
2019-06-08T07:50:48.362Z,59.00
2019-06-08T07:53:16.943Z,58.90
2019-06-08T07:55:45.650Z,59.50
2019-06-08T07:58:14.342Z,60.20
2019-06-08T08:00:42.947Z,60.50
2019-06-08T08:03:11.679Z,60.30
2019-06-08T08:05:40.176Z,60.70
2019-06-08T08:08:08.746Z,59.80
2019-06-08T08:10:37.375Z,59.40
2019-06-08T08:13:05.851Z,59.70
2019-06-08T08:15:34.316Z,59.80
2019-06-08T08:18:02.895Z,58.70
2019-06-08T08:20:31.410Z,59.20
2019-06-08T08:23:05.800Z,59.40
2019-06-08T08:25:30.121Z,59.70
2019-06-08T08:28:00.876Z,59.70
2019-06-08T08:30:28.849Z,59.20
2019-06-08T08:33:01.664Z,59.40
2019-06-08T08:35:28.081Z,58.70
2019-06-08T08:38:02.337Z,59.30
2019-06-08T08:40:28.220Z,59.30
2019-06-08T08:42:58.670Z,58.50
2019-06-08T08:45:27.563Z,58.60
2019-06-08T08:48:14.422Z,59.50
2019-06-08T08:50:28.296Z,59.20
2019-06-08T08:52:58.938Z,59.20
2019-06-08T08:55:27.959Z,59.00
2019-06-08T08:57:59.043Z,58.70
2019-06-08T09:00:28.125Z,58.60
2019-06-08T09:03:16.237Z,58.40
2019-06-08T09:05:28.133Z,58.70
2019-06-08T09:08:00.017Z,58.30
2019-06-08T09:10:28.089Z,58.40
2019-06-08T09:13:00.563Z,58.20
2019-06-08T09:15:31.146Z,58.10
2019-06-08T09:18:01.864Z,58.10
2019-06-08T09:20:31.115Z,58.60
2019-06-08T09:23:10.103Z,58.60
2019-06-08T09:25:30.246Z,58.40
2019-06-08T09:28:01.228Z,58.30
2019-06-08T09:30:32.171Z,58.50
2019-06-08T09:33:04.274Z,58.30
2019-06-08T09:35:33.110Z,58.30
2019-06-08T09:38:03.753Z,59.50
2019-06-08T09:40:32.642Z,58.00
2019-06-08T09:43:06.108Z,58.30
2019-06-08T09:45:31.479Z,58.70
2019-06-08T09:48:02.367Z,58.30
2019-06-08T09:50:30.386Z,58.30
2019-06-08T09:53:18.311Z,58.20
2019-06-08T09:55:30.361Z,58.50
2019-06-08T09:58:01.881Z,58.50
2019-06-08T10:00:29.857Z,58.00
2019-06-08T10:03:01.101Z,58.40
2019-06-08T10:05:29.013Z,58.40
2019-06-08T10:08:00.447Z,58.20
2019-06-08T10:10:27.864Z,58.00
2019-06-08T10:12:59.638Z,57.70
2019-06-08T10:15:27.858Z,58.10
2019-06-08T10:17:56.868Z,58.40
2019-06-08T10:20:25.572Z,58.10
2019-06-08T10:22:54.810Z,57.80
2019-06-08T10:25:23.387Z,57.90
2019-06-08T10:27:51.991Z,57.40
2019-06-08T10:30:20.656Z,57.90
2019-06-08T10:32:50.829Z,57.60
2019-06-08T10:35:21.000Z,57.90
2019-06-08T10:37:51.162Z,57.50
2019-06-08T10:40:20.013Z,57.80
2019-06-08T10:42:48.639Z,58.50
2019-06-08T10:45:18.578Z,58.00
2019-06-08T10:47:47.917Z,57.60
2019-06-08T10:50:19.108Z,57.00
2019-06-08T10:52:46.981Z,56.10
2019-06-08T10:55:17.846Z,56.70
2019-06-08T10:57:47.703Z,57.40
2019-06-08T11:00:24.166Z,57.40
2019-06-08T11:02:53.189Z,57.30
2019-06-08T11:05:21.883Z,57.50
2019-06-08T11:07:50.600Z,56.70
2019-06-08T11:10:19.221Z,57.50
2019-06-08T11:12:48.536Z,56.70
2019-06-08T11:15:17.323Z,56.70
2019-06-08T11:17:45.867Z,56.60
2019-06-08T11:20:15.996Z,56.90
2019-06-08T11:22:44.661Z,56.70
2019-06-08T11:25:16.097Z,56.60
2019-06-08T11:27:43.434Z,56.30
2019-06-08T11:30:20.487Z,56.50
2019-06-08T11:32:42.361Z,56.50
2019-06-08T11:35:12.508Z,56.20
2019-06-08T11:37:41.186Z,55.90
2019-06-08T11:40:13.144Z,56.10
2019-06-08T11:42:41.755Z,56.40
2019-06-08T11:45:12.690Z,56.40
2019-06-08T11:47:40.622Z,56.10
2019-06-08T11:50:13.055Z,56.60
2019-06-08T11:52:40.962Z,56.70
2019-06-08T11:55:12.512Z,56.40
2019-06-08T11:57:40.436Z,55.10
2019-06-08T12:00:23.429Z,55.20
2019-06-08T12:02:41.423Z,53.60
2019-06-08T12:05:17.967Z,54.80
2019-06-08T12:07:47.920Z,54.00
2019-06-08T12:10:17.849Z,54.90
2019-06-08T12:12:46.705Z,57.40
2019-06-08T12:15:18.146Z,59.20
2019-06-08T12:17:45.476Z,59.10
2019-06-08T12:20:17.558Z,59.40
2019-06-08T12:22:44.207Z,59.50
2019-06-08T12:25:14.167Z,60.80
2019-06-08T12:27:42.787Z,62.90
2019-06-08T12:30:21.670Z,63.20
2019-06-08T12:32:41.490Z,63.80
2019-06-08T12:35:12.140Z,63.90
2019-06-08T12:37:41.465Z,62.90
2019-06-08T12:40:13.273Z,64.30
2019-06-08T12:42:42.966Z,64.70
2019-06-08T12:45:11.467Z,64.10
2019-06-08T12:47:41.332Z,64.50
2019-06-08T12:50:12.268Z,64.50
2019-06-08T12:52:43.019Z,65.10
2019-06-08T12:55:15.867Z,64.40
2019-06-08T12:57:40.951Z,64.40
2019-06-08T13:00:10.282Z,63.10
2019-06-08T13:02:39.899Z,63.40
2019-06-08T13:05:12.424Z,63.90
2019-06-08T13:15:58.344Z,61.20
2019-06-08T13:18:28.437Z,61.90
2019-06-08T13:20:59.161Z,61.10
2019-06-08T13:23:28.296Z,60.70
2019-06-08T13:25:57.078Z,63.10
2019-06-08T13:28:26.205Z,63.90
2019-06-08T13:30:58.052Z,65.70
2019-06-08T13:33:27.924Z,68.10
2019-06-08T13:35:58.633Z,67.40
2019-06-08T13:38:27.821Z,68.90
2019-06-08T13:40:58.577Z,68.50
2019-06-08T13:43:26.707Z,69.40
2019-06-08T13:45:58.084Z,69.00
2019-06-08T13:48:25.703Z,70.20
2019-06-08T13:50:54.193Z,70.20
2019-06-08T13:53:27.309Z,70.30
2019-06-08T13:55:56.490Z,69.70
2019-06-08T13:58:31.620Z,69.80
2019-06-08T14:00:56.563Z,70.10
2019-06-08T14:03:24.447Z,69.70
2019-06-08T14:05:53.151Z,70.00
2019-06-08T14:08:22.896Z,68.10
2019-06-08T14:10:52.164Z,68.50
2019-06-08T14:13:26.755Z,68.90
2019-06-08T14:15:50.977Z,68.40
2019-06-08T14:18:24.960Z,68.10
2019-06-08T14:20:49.750Z,68.80
2019-06-08T14:23:21.050Z,69.40
2019-06-08T14:25:56.419Z,68.70
2019-06-08T14:28:21.054Z,69.40
2019-06-08T14:30:49.100Z,69.20
2019-06-08T14:33:23.527Z,67.90
2019-06-08T14:35:47.734Z,68.30
2019-06-08T14:38:19.454Z,68.10
2019-06-08T14:40:47.467Z,66.50
2019-06-08T14:43:17.704Z,66.60
2019-06-08T14:45:46.501Z,67.40
2019-06-08T14:48:15.203Z,67.20
2019-06-08T14:50:43.854Z,66.70
2019-06-08T14:53:12.393Z,66.40
2019-06-08T14:55:41.082Z,67.00
2019-06-08T14:58:09.609Z,67.00
2019-06-08T15:00:38.432Z,66.40
2019-06-08T15:03:07.732Z,67.80
2019-06-08T15:05:36.463Z,64.60
2019-06-08T15:08:08.090Z,65.80
2019-06-08T15:10:35.491Z,63.20
2019-06-08T15:13:04.174Z,62.30
2019-06-08T15:15:34.373Z,63.30
2019-06-08T15:18:04.877Z,64.50
2019-06-08T15:20:33.236Z,64.60
2019-06-08T15:23:01.925Z,64.90
2019-06-08T15:25:32.777Z,63.90
2019-06-08T15:28:01.380Z,62.80
2019-06-08T15:30:31.495Z,64.30
2019-06-08T15:33:00.361Z,62.90
2019-06-08T15:35:29.467Z,62.90
2019-06-08T15:37:58.618Z,63.40
2019-06-08T15:40:27.848Z,62.30
2019-06-08T15:42:58.556Z,63.10
2019-06-08T15:45:29.408Z,63.10
2019-06-08T15:47:58.643Z,62.90
2019-06-08T15:50:28.434Z,62.00
2019-06-08T15:52:59.852Z,62.50
2019-06-08T15:55:31.268Z,63.80
2019-06-08T15:57:58.906Z,63.20
2019-06-08T16:00:30.030Z,63.30
2019-06-08T16:02:58.495Z,60.60
2019-06-08T16:05:27.710Z,60.30
2019-06-08T16:07:56.622Z,59.70
2019-06-08T16:10:26.444Z,60.80
2019-06-08T16:12:55.089Z,59.00
2019-06-08T16:15:26.864Z,59.90
2019-06-08T16:17:55.542Z,60.40
2019-06-08T16:20:25.690Z,61.70
2019-06-08T16:22:54.250Z,61.30
2019-06-08T16:25:22.792Z,61.40
2019-06-08T16:27:51.547Z,61.30
2019-06-08T16:30:20.039Z,62.30
2019-06-08T16:32:49.080Z,61.80
2019-06-08T16:35:17.584Z,61.60
2019-06-08T16:37:46.070Z,61.00
2019-06-08T16:40:14.577Z,61.20
2019-06-08T16:42:43.398Z,60.70
2019-06-08T16:45:12.125Z,61.00
2019-06-08T16:47:43.346Z,60.60
2019-06-08T16:50:23.452Z,61.80
2019-06-08T16:52:41.074Z,61.00
2019-06-08T16:55:09.774Z,60.70
2019-06-08T16:57:41.061Z,60.50
2019-06-08T17:02:39.341Z,60.60
2019-06-08T17:05:08.087Z,60.60
2019-06-08T17:07:37.739Z,59.30
2019-06-08T17:10:06.943Z,59.90
2019-06-08T17:12:35.438Z,60.70
2019-06-08T17:15:04.987Z,60.00
2019-06-08T17:17:34.236Z,59.80
2019-06-08T17:20:04.933Z,60.60
2019-06-08T17:22:34.532Z,61.30
2019-06-08T17:25:03.970Z,60.00
2019-06-08T17:27:32.659Z,59.80
2019-06-08T17:30:08.053Z,60.60
2019-06-08T17:32:31.510Z,59.60
2019-06-08T17:35:00.141Z,59.70
2019-06-08T17:37:28.956Z,59.30
2019-06-08T17:39:57.478Z,59.30
2019-06-08T17:42:26.039Z,59.40
2019-06-08T17:44:54.548Z,60.00
2019-06-08T17:47:24.810Z,59.50
2019-06-08T17:49:53.641Z,58.60
2019-06-08T17:52:22.303Z,59.60
2019-06-08T17:54:50.824Z,58.70
2019-06-08T17:57:19.443Z,58.40
2019-06-08T17:59:47.964Z,58.60
2019-06-08T18:02:25.074Z,59.00
2019-06-08T18:04:48.553Z,58.30
2019-06-08T18:07:17.203Z,58.50
2019-06-08T18:09:48.459Z,59.60
2019-06-08T18:12:18.354Z,59.50
2019-06-08T18:14:47.938Z,59.70
2019-06-08T18:17:17.763Z,59.80
2019-06-08T18:19:49.506Z,59.10
2019-06-08T18:22:18.632Z,59.00
2019-06-08T18:24:47.960Z,59.00
2019-06-08T18:27:18.073Z,58.90
2019-06-08T18:29:48.831Z,59.00
2019-06-08T18:32:18.138Z,59.30
2019-06-08T18:34:48.055Z,59.50
2019-06-08T18:37:18.042Z,59.20
2019-06-08T18:39:49.073Z,58.70
2019-06-08T18:42:17.621Z,59.00
2019-06-08T18:44:48.587Z,59.10
2019-06-08T18:47:17.766Z,59.40
2019-06-08T18:49:48.432Z,59.00
2019-06-08T18:52:17.642Z,59.10
2019-06-08T18:54:49.275Z,58.90
2019-06-08T18:57:17.613Z,58.40
2019-06-08T18:59:50.955Z,58.50
2019-06-08T19:02:17.999Z,58.80
2019-06-08T19:04:47.752Z,58.50
2019-06-08T19:07:17.578Z,58.10
2019-06-08T19:09:48.063Z,58.80
2019-06-08T19:12:16.866Z,59.10
2019-06-08T19:14:47.494Z,57.50
2019-06-08T19:17:17.451Z,57.80
2019-06-08T19:19:48.530Z,58.20
2019-06-08T19:22:19.001Z,58.00
2019-06-08T19:24:49.442Z,58.00
2019-06-08T19:27:18.391Z,58.20
2019-06-08T19:29:49.973Z,58.10
2019-06-08T19:32:17.628Z,58.60
2019-06-08T19:34:52.284Z,57.50
2019-06-08T19:37:17.229Z,57.80
2019-06-08T19:39:47.888Z,57.50
2019-06-08T19:42:17.521Z,57.90
2019-06-08T19:44:57.641Z,58.50
2019-06-08T19:47:17.616Z,58.00
2019-06-08T19:49:47.738Z,58.40
2019-06-08T19:52:18.301Z,57.70
2019-06-08T19:54:52.159Z,58.00
2019-06-08T19:57:17.533Z,58.00
2019-06-08T19:59:47.500Z,57.90
2019-06-08T20:02:17.703Z,58.20
2019-06-08T20:04:46.880Z,57.60
2019-06-08T20:07:17.530Z,58.70
2019-06-08T20:09:47.547Z,58.20
2019-06-08T20:12:18.473Z,58.50
2019-06-08T20:14:48.036Z,58.00
2019-06-08T20:17:17.218Z,58.10
2019-06-08T20:19:48.929Z,58.00
2019-06-08T20:22:18.225Z,58.10
2019-06-08T20:24:51.447Z,58.80
2019-06-08T20:27:17.363Z,58.40
2019-06-08T20:29:47.914Z,57.70
2019-06-08T20:32:18.040Z,58.10
2019-06-08T20:34:49.302Z,58.70
2019-06-08T20:37:17.543Z,58.30
2019-06-08T20:39:59.439Z,58.20
2019-06-08T20:42:17.393Z,57.30
2019-06-08T20:44:46.706Z,58.20
2019-06-08T20:47:20.377Z,58.80
2019-06-08T20:49:48.943Z,58.00
2019-06-08T20:52:17.770Z,58.70
2019-06-08T20:54:48.755Z,57.80
2019-06-08T20:57:17.040Z,58.00
2019-06-08T20:59:45.751Z,58.00
2019-06-08T21:02:14.426Z,58.40
2019-06-08T21:04:44.518Z,58.80
2019-06-08T21:07:13.434Z,58.20
2019-06-08T21:09:41.925Z,57.90
2019-06-08T21:12:10.632Z,58.00
2019-06-08T21:14:39.277Z,57.80
2019-06-08T21:17:07.827Z,57.90
2019-06-08T21:19:36.275Z,58.50
2019-06-08T21:22:05.068Z,58.30
2019-06-08T21:24:33.582Z,58.10
2019-06-08T21:27:02.099Z,58.20
2019-06-08T21:29:47.006Z,58.30
2019-06-08T21:32:02.570Z,58.50
2019-06-08T21:34:31.132Z,58.80
2019-06-08T21:37:00.882Z,58.30
2019-06-08T21:39:31.402Z,58.50
2019-06-08T21:42:02.898Z,58.50
2019-06-08T21:44:30.081Z,58.90
2019-06-08T21:47:01.296Z,58.50
2019-06-08T21:49:28.771Z,58.40
2019-06-08T21:52:00.726Z,58.80
2019-06-08T21:54:27.449Z,58.60
2019-06-08T21:56:58.953Z,58.40
2019-06-08T21:59:26.114Z,58.30
2019-06-08T22:01:56.905Z,59.10
2019-06-08T22:04:24.840Z,58.70
2019-06-08T22:06:54.121Z,58.60
2019-06-08T22:09:24.670Z,58.40
2019-06-08T22:11:54.310Z,58.50
2019-06-08T22:14:23.032Z,58.40
2019-06-08T22:16:52.503Z,58.10
2019-06-08T22:19:21.930Z,58.30
2019-06-08T22:21:52.079Z,58.30
2019-06-08T22:24:20.818Z,58.90
2019-06-08T22:26:49.467Z,58.70
2019-06-08T22:29:18.324Z,58.40
2019-06-08T22:31:47.920Z,58.70
2019-06-08T22:34:17.487Z,58.50
2019-06-08T22:36:47.808Z,58.50
2019-06-08T22:39:17.593Z,58.30
2019-06-08T22:41:47.797Z,58.10
2019-06-08T22:44:17.729Z,58.30
2019-06-08T22:46:47.865Z,58.00
2019-06-08T22:49:18.620Z,58.10
2019-06-08T22:51:47.704Z,58.20
2019-06-08T22:54:17.050Z,58.30
2019-06-08T22:56:47.639Z,58.20
2019-06-08T22:59:17.483Z,57.80
2019-06-08T23:01:47.591Z,58.30
2019-06-08T23:04:18.253Z,58.10
2019-06-08T23:06:47.661Z,58.40
2019-06-08T23:09:17.949Z,58.50
2019-06-08T23:11:47.139Z,58.50
2019-06-08T23:14:17.915Z,58.50
2019-06-08T23:16:47.240Z,58.70
2019-06-08T23:19:17.383Z,58.10
2019-06-08T23:21:47.553Z,58.50
2019-06-08T23:24:18.118Z,58.10
2019-06-08T23:26:47.990Z,58.20
2019-06-08T23:29:17.899Z,58.20
2019-06-08T23:31:47.955Z,58.00
2019-06-08T23:34:18.361Z,58.40
2019-06-08T23:36:58.278Z,58.50
2019-06-08T23:39:17.983Z,58.50
2019-06-08T23:41:48.275Z,58.40
2019-06-08T23:44:17.648Z,58.30
2019-06-08T23:46:47.652Z,58.60
2019-06-08T23:49:18.667Z,58.20
2019-06-08T23:51:47.559Z,58.70
2019-06-08T23:54:18.380Z,58.90
2019-06-08T23:56:47.666Z,59.10
2019-06-08T23:59:17.821Z,58.50
